Time;durP1;ratioP1;P1;durP2;ratioP2;P2;SDS_P1;SDS_P2;PMS_P1;PMS_P2;Temp;Humidity;BMP_temperature;BMP_pressure;BME280_temperature;BME280_humidity;BME280_pressure;Samples;Min_cycle;Max_cycle;Signal;HPM_P1;HPM_P2
2023/07/02 00:08:52;;;;;;;33.83;24.92;;;;;;;26.31;36.00;101273.75;21079388;28;20043;-58
2023/07/02 00:18:56;;;;;;;32.45;24.10;;;;;;;26.43;40.36;101283.63;21079462;28;20117;-59
2023/07/02 00:28:57;;;;;;;32.67;24.30;;;;;;;26.55;42.88;101286.78;21078839;28;20519;-59
2023/07/02 00:38:59;;;;;;;31.35;23.42;;;;;;;26.65;44.40;101288.56;21077887;28;20040;-58
2023/07/02 00:49:04;;;;;;;32.33;24.15;;;;;;;26.75;45.14;101299.56;21077882;28;20512;-59
2023/07/02 00:59:08;;;;;;;32.10;23.25;;;;;;;26.83;45.64;101296.84;21074945;28;20086;-59
2023/07/02 01:09:10;;;;;;;29.90;22.13;;;;;;;26.94;45.88;101305.91;21075982;28;20032;-61
2023/07/02 01:19:20;;;;;;;29.73;22.33;;;;;;;27.01;45.98;101295.06;21075517;28;20085;-60
2023/07/02 01:29:22;;;;;;;27.45;21.45;;;;;;;27.07;45.94;101276.13;21075463;28;20044;-58
2023/07/02 01:39:23;;;;;;;30.70;21.27;;;;;;;27.15;46.19;101261.38;21075122;28;20101;-60
2023/07/02 01:49:25;;;;;;;29.95;21.90;;;;;;;27.22;46.35;101283.44;21075094;28;20036;-59
2023/07/02 01:59:26;;;;;;;27.08;20.75;;;;;;;27.28;46.48;101276.53;21074679;28;20043;-60
2023/07/02 02:09:29;;;;;;;24.38;18.50;;;;;;;27.33;46.62;101294.09;21074035;28;20032;-60
2023/07/02 02:19:30;;;;;;;23.45;18.70;;;;;;;27.38;46.50;101292.31;21073635;28;20052;-60
2023/07/02 02:29:32;;;;;;;25.77;19.35;;;;;;;27.42;46.60;101299.81;21078234;28;20044;-60
2023/07/02 02:39:33;;;;;;;23.33;18.90;;;;;;;27.46;46.43;101294.38;21088044;28;20044;-59
2023/07/02 02:49:38;;;;;;;21.45;17.70;;;;;;;27.41;46.58;101280.47;21086332;28;20028;-58
2023/07/02 02:59:40;;;;;;;22.00;17.20;;;;;;;27.42;46.46;101271.69;21085082;28;20109;-59
2023/07/02 03:09:41;;;;;;;21.65;16.70;;;;;;;27.56;46.27;101292.16;21085032;28;20036;-60
2023/07/02 03:19:43;;;;;;;19.95;16.67;;;;;;;27.59;46.55;101287.91;21083410;28;20125;-59
2023/07/02 03:29:47;;;;;;;20.60;16.50;;;;;;;27.64;46.50;101279.31;21083575;28;20048;-61
2023/07/02 03:39:48;;;;;;;19.80;15.95;;;;;;;27.69;46.49;101278.38;21081882;28;20591;-59
2023/07/02 03:49:50;;;;;;;19.73;15.95;;;;;;;27.72;46.24;101292.66;21082025;28;20044;-60
2023/07/02 03:59:51;;;;;;;16.83;13.80;;;;;;;27.73;46.19;101273.81;21081127;28;20048;-59
2023/07/02 04:09:56;;;;;;;19.08;14.65;;;;;;;27.77;46.09;101278.47;21080613;28;20040;-59
2023/07/02 04:20:02;;;;;;;19.55;15.98;;;;;;;27.80;46.17;101271.34;21079832;28;20101;-59
2023/07/02 04:30:05;;;;;;;18.23;14.63;;;;;;;27.43;46.14;101205.09;21078624;28;20086;-58
2023/07/02 04:40:11;;;;;;;17.45;14.10;;;;;;;27.85;46.21;101243.94;21078091;28;20496;-60
2023/07/02 04:50:12;;;;;;;17.88;14.07;;;;;;;27.88;46.25;101247.25;21076834;28;20032;-59
2023/07/02 05:00:17;;;;;;;17.70;14.00;;;;;;;27.86;46.13;101222.28;21077483;28;20048;-58
2023/07/02 05:10:18;;;;;;;15.88;12.80;;;;;;;27.89;46.07;101206.72;21076510;28;20587;-59
2023/07/02 05:20:19;;;;;;;15.45;12.70;;;;;;;27.95;46.19;101227.94;21076039;28;20391;-59
2023/07/02 05:30:20;;;;;;;15.15;12.48;;;;;;;27.95;46.37;101197.00;21075763;28;20094;-59
2023/07/02 05:40:22;;;;;;;14.13;11.80;;;;;;;27.98;46.31;101197.19;21075016;28;20453;-59
2023/07/02 05:50:23;;;;;;;16.05;12.63;;;;;;;27.99;46.50;101179.16;21075149;28;20066;-58
2023/07/02 06:00:25;;;;;;;15.45;12.20;;;;;;;27.99;46.54;101150.19;21075373;28;20040;-58
2023/07/02 06:10:26;;;;;;;12.57;10.77;;;;;;;28.01;46.47;101142.28;21089186;28;20024;-58
2023/07/02 06:20:27;;;;;;;15.38;11.25;;;;;;;28.05;46.45;101137.66;21089526;28;20043;-59
2023/07/02 06:30:28;;;;;;;12.75;10.88;;;;;;;28.02;46.71;101124.25;21088703;28;20194;-59
2023/07/02 06:40:30;;;;;;;14.95;11.32;;;;;;;28.07;46.79;101110.03;21088320;28;20071;-58
2023/07/02 06:50:31;;;;;;;13.00;10.48;;;;;;;28.09;46.64;101093.66;21087224;28;20036;-58
2023/07/02 07:00:36;;;;;;;11.95;10.30;;;;;;;28.09;46.51;101094.50;21086300;28;20056;-60
2023/07/02 07:10:37;;;;;;;13.32;10.52;;;;;;;28.11;46.63;101082.91;21087455;28;20032;-60
2023/07/02 07:20:42;;;;;;;11.55;9.88;;;;;;;28.11;46.75;101066.03;21084788;28;20044;-60
2023/07/02 07:30:44;;;;;;;13.73;10.85;;;;;;;28.14;46.77;101039.22;21084077;28;20089;-60
2023/07/02 07:40:48;;;;;;;12.18;10.15;;;;;;;28.10;46.83;101016.53;21083793;28;20028;-60
2023/07/02 07:50:52;;;;;;;13.57;9.70;;;;;;;28.14;46.77;101023.19;21082828;28;20044;-60
2023/07/02 08:00:53;;;;;;;10.70;8.75;;;;;;;28.17;46.58;101025.31;21081712;28;20070;-58
2023/07/02 08:10:55;;;;;;;11.38;9.43;;;;;;;28.10;46.65;101022.16;21081121;28;20032;-57
2023/07/02 08:21:06;;;;;;;11.48;10.27;;;;;;;28.17;46.80;101010.41;21080092;28;20044;-58
2023/07/02 08:31:07;;;;;;;10.60;9.10;;;;;;;28.17;46.66;101016.88;21078294;28;20121;-58
2023/07/02 08:41:09;;;;;;;11.88;10.02;;;;;;;28.17;46.65;101030.94;21078607;28;20056;-59
2023/07/02 08:51:10;;;;;;;12.15;9.95;;;;;;;28.21;46.74;101039.56;21077995;28;20032;-59
2023/07/02 09:01:13;;;;;;;11.38;9.35;;;;;;;28.20;46.88;101027.47;21077072;28;20471;-59
2023/07/02 09:11:17;;;;;;;12.02;9.35;;;;;;;28.19;46.73;101034.28;21076285;28;20036;-58
2023/07/02 09:21:18;;;;;;;10.98;9.15;;;;;;;28.20;46.73;101041.53;21076272;28;20044;-59
2023/07/02 09:31:20;;;;;;;11.85;9.07;;;;;;;28.22;46.65;101025.16;21075475;28;20032;-58
2023/07/02 09:41:21;;;;;;;11.48;9.35;;;;;;;28.22;46.55;101030.78;21085888;28;20044;-59
2023/07/02 09:51:24;;;;;;;9.77;8.70;;;;;;;28.19;46.83;101025.00;21092299;28;20036;-59
2023/07/02 10:01:25;;;;;;;10.73;9.15;;;;;;;28.23;46.63;101026.00;21091472;28;20123;-59
2023/07/02 10:11:35;;;;;;;10.20;8.77;;;;;;;28.23;46.70;101038.09;21090244;28;20039;-59
2023/07/02 10:21:36;;;;;;;11.45;8.77;;;;;;;28.25;46.79;101051.81;21089771;28;20044;-59
2023/07/02 10:31:48;;;;;;;11.85;9.77;;;;;;;28.21;46.70;101057.25;21088983;28;20044;-60
2023/07/02 10:41:49;;;;;;;10.43;8.80;;;;;;;28.22;46.94;101047.66;21087998;28;20487;-59
2023/07/02 10:52:01;;;;;;;10.55;9.18;;;;;;;28.14;46.90;101034.44;21086713;28;20043;-59
2023/07/02 11:02:06;;;;;;;11.57;8.88;;;;;;;28.25;46.65;101041.38;21086699;28;20074;-58
2023/07/02 11:12:16;;;;;;;10.77;8.77;;;;;;;28.25;46.82;101058.25;21085298;28;20036;-60
2023/07/02 11:22:17;;;;;;;12.23;9.43;;;;;;;28.26;46.90;101059.09;21084924;28;20120;-59
2023/07/02 11:32:19;;;;;;;12.32;10.15;;;;;;;28.26;47.01;101042.22;21083850;28;20040;-58
2023/07/02 11:42:21;;;;;;;11.70;9.15;;;;;;;28.25;47.02;101055.44;21082701;28;20056;-58
2023/07/02 11:52:22;;;;;;;12.63;9.85;;;;;;;28.27;47.09;101078.47;21082248;28;20042;-58
2023/07/02 12:02:24;;;;;;;14.05;11.32;;;;;;;28.28;47.01;101088.56;21080337;28;20044;-58
2023/07/02 12:12:25;;;;;;;15.82;11.57;;;;;;;28.27;47.34;101077.63;21079298;28;20472;-58
2023/07/02 12:22:27;;;;;;;14.25;12.00;;;;;;;28.28;47.39;101091.38;21079834;28;20081;-60
2023/07/02 12:32:28;;;;;;;17.65;13.55;;;;;;;28.28;47.52;101082.13;21078993;28;20062;-60
2023/07/02 12:42:30;;;;;;;18.60;14.18;;;;;;;28.30;47.58;101083.44;21078188;28;20047;-60
2023/07/02 12:52:31;;;;;;;17.73;14.05;;;;;;;28.00;47.92;101045.00;21078515;28;20024;-60
2023/07/02 13:02:32;;;;;;;19.77;15.30;;;;;;;28.31;47.91;101087.91;21077449;28;20024;-60
2023/07/02 13:12:36;;;;;;;18.60;14.88;;;;;;;28.28;48.00;101068.88;21076390;28;20436;-59
2023/07/02 13:22:38;;;;;;;18.92;15.20;;;;;;;28.30;48.15;101083.44;21076056;28;20039;-60
2023/07/02 13:32:39;;;;;;;20.30;15.32;;;;;;;28.31;48.19;101062.56;21075398;28;20481;-60
2023/07/02 13:42:42;;;;;;;20.80;15.80;;;;;;;28.32;48.40;101078.31;21074945;28;20088;-57
2023/07/02 13:52:46;;;;;;;19.60;16.15;;;;;;;28.31;48.21;101090.72;21075055;28;20387;-58
2023/07/02 14:02:47;;;;;;;21.13;16.38;;;;;;;28.30;48.60;101091.88;21074274;28;20101;-60
2023/07/02 14:12:52;;;;;;;21.52;16.70;;;;;;;28.33;48.72;101094.03;21074280;28;20395;-60
2023/07/02 14:22:53;;;;;;;22.52;16.83;;;;;;;28.33;48.98;101082.78;21074782;28;20036;-59
2023/07/02 14:32:54;;;;;;;24.30;17.63;;;;;;;28.34;49.10;101070.41;21087836;28;20442;-59
2023/07/02 14:42:56;;;;;;;23.10;17.85;;;;;;;28.31;48.96;101053.31;21087732;28;20479;-59
2023/07/02 14:52:57;;;;;;;24.90;18.02;;;;;;;28.31;48.96;101051.31;21087704;28;20051;-59
2023/07/02 15:02:59;;;;;;;21.08;16.52;;;;;;;28.34;49.26;101050.69;21085975;28;20048;-58
2023/07/02 15:13:00;;;;;;;25.70;18.48;;;;;;;28.05;49.21;100991.38;21085856;28;20028;-58
2023/07/02 15:23:02;;;;;;;22.80;17.63;;;;;;;28.38;49.35;101045.25;21084500;28;20032;-58
2023/07/02 15:33:03;;;;;;;24.92;18.73;;;;;;;28.38;49.36;101056.50;21084080;28;20042;-58
2023/07/02 15:43:15;;;;;;;22.58;17.88;;;;;;;28.38;49.44;101069.75;21083039;28;20040;-60
2023/07/02 15:53:20;;;;;;;22.92;17.85;;;;;;;28.41;49.66;101060.63;21081487;28;20501;-58
2023/07/02 16:03:22;;;;;;;23.23;17.50;;;;;;;28.41;47.43;101060.63;21081755;28;20376;-60
2023/07/02 16:13:23;;;;;;;23.33;17.30;;;;;;;28.22;45.26;101064.53;21078064;28;20479;-56
2023/07/02 16:23:25;;;;;;;23.48;18.02;;;;;;;27.96;45.33;101038.34;21077837;28;20036;-59
2023/07/02 16:33:32;;;;;;;24.45;18.58;;;;;;;28.00;44.92;101065.50;21078753;28;20040;-59
2023/07/02 16:43:34;;;;;;;23.10;18.60;;;;;;;27.90;44.37;101062.16;21076712;28;20073;-59
2023/07/02 16:53:36;;;;;;;24.70;19.65;;;;;;;27.66;44.12;101024.00;21076384;28;20495;-60
2023/07/02 17:03:38;;;;;;;42.80;21.35;;;;;;;27.76;44.16;101043.41;21076717;28;20024;-59
2023/07/02 17:13:39;;;;;;;44.75;20.58;;;;;;;27.69;43.56;101034.59;21076656;28;20560;-59
2023/07/02 17:23:40;;;;;;;32.75;19.35;;;;;;;27.56;43.39;101004.63;21076813;28;20048;-59
2023/07/02 17:33:42;;;;;;;30.45;17.98;;;;;;;27.56;43.11;100979.31;21031076;28;20464;-59
2023/07/02 17:43:43;;;;;;;68.25;20.35;;;;;;;27.46;42.61;100951.50;21060426;28;20495;-59
2023/07/02 17:53:47;;;;;;;72.90;21.90;;;;;;;27.44;42.53;100959.41;21074861;28;20066;-60
2023/07/02 18:03:49;;;;;;;79.20;21.48;;;;;;;27.46;42.12;100962.75;21083155;28;20483;-58
2023/07/02 18:13:50;;;;;;;80.93;21.42;;;;;;;27.41;42.25;100954.47;21088050;28;20044;-58
2023/07/02 18:23:51;;;;;;;66.93;19.33;;;;;;;27.39;42.30;100951.97;21088029;28;20040;-59
2023/07/02 18:33:52;;;;;;;65.95;20.40;;;;;;;27.34;42.46;100943.69;21076107;28;20075;-60
2023/07/02 18:43:54;;;;;;;45.00;18.52;;;;;;;27.30;42.26;100923.84;21055657;28;20040;-59
2023/07/02 18:53:56;;;;;;;40.17;16.60;;;;;;;27.30;42.24;100904.16;21084990;28;20101;-59
2023/07/02 19:03:58;;;;;;;49.83;16.83;;;;;;;27.27;42.92;100938.56;21085384;28;20048;-59
2023/07/02 19:13:59;;;;;;;37.55;17.15;;;;;;;27.28;43.55;100973.09;21083120;28;20044;-59
2023/07/02 19:24:01;;;;;;;27.42;17.10;;;;;;;27.22;42.60;100944.31;21051422;28;20052;-59
2023/07/02 19:34:05;;;;;;;27.25;15.88;;;;;;;27.18;42.17;100928.44;21000318;28;20472;-59
2023/07/02 19:44:10;;;;;;;23.48;15.30;;;;;;;27.00;41.88;100900.22;20998909;28;20446;-58
2023/07/02 19:54:15;;;;;;;25.55;15.07;;;;;;;27.08;42.10;100901.44;20998462;28;20400;-60
2023/07/02 20:04:21;;;;;;;26.40;15.80;;;;;;;26.95;42.13;100868.66;20997883;28;20102;-59
2023/07/02 20:14:22;;;;;;;21.52;14.02;;;;;;;26.90;41.94;100854.78;20996478;28;20044;-59
2023/07/02 20:24:24;;;;;;;22.98;15.65;;;;;;;26.99;42.23;100847.22;20994894;28;20044;-59
2023/07/02 20:34:26;;;;;;;19.27;14.40;;;;;;;26.98;42.73;100845.53;21030782;28;20032;-59
2023/07/02 20:44:27;;;;;;;29.92;14.82;;;;;;;26.93;44.16;100810.00;21078618;28;20078;-58
2023/07/02 20:54:29;;;;;;;23.40;15.32;;;;;;;27.01;44.24;100820.44;21069895;28;20180;-58
2023/07/02 21:04:30;;;;;;;22.98;14.93;;;;;;;26.99;44.45;100819.13;21070812;28;20044;-57
2023/07/02 21:14:31;;;;;;;20.58;15.35;;;;;;;26.51;44.23;100721.69;21070533;28;20044;-57
2023/07/02 21:24:35;;;;;;;21.27;15.38;;;;;;;26.99;43.99;100774.19;21069679;28;20040;-58
2023/07/02 21:34:42;;;;;;;21.27;14.90;;;;;;;26.91;44.15;100772.19;21070944;28;20077;-59
2023/07/02 21:44:43;;;;;;;19.23;14.87;;;;;;;26.87;44.05;100769.19;21089518;28;20056;-59
2023/07/02 21:54:47;;;;;;;22.15;15.40;;;;;;;26.92;44.04;100768.22;21087862;28;20365;-58
2023/07/02 22:04:48;;;;;;;22.52;14.85;;;;;;;26.89;44.30;100754.81;21089417;28;20432;-58
2023/07/02 22:14:52;;;;;;;26.45;14.98;;;;;;;26.86;44.08;100750.69;21067656;28;20446;-58
2023/07/02 22:24:54;;;;;;;19.80;14.15;;;;;;;26.86;44.38;100737.50;21078010;28;20074;-59
2023/07/02 22:34:58;;;;;;;20.90;15.20;;;;;;;26.90;44.83;100742.47;21081330;28;20093;-58
2023/07/02 22:44:59;;;;;;;21.92;15.98;;;;;;;26.89;45.05;100760.44;21086265;28;20060;-58
2023/07/02 22:55:06;;;;;;;20.02;15.48;;;;;;;26.80;44.79;100750.03;21076934;28;20028;-58
2023/07/02 23:05:10;;;;;;;20.83;16.08;;;;;;;26.89;45.01;100766.06;21073758;28;20044;-59
2023/07/02 23:15:13;;;;;;;20.38;15.75;;;;;;;26.71;45.29;100740.75;21073372;28;20040;-58
2023/07/02 23:25:20;;;;;;;20.40;15.77;;;;;;;26.83;44.96;100780.25;21083209;28;20048;-57
2023/07/02 23:35:21;;;;;;;19.93;16.37;;;;;;;26.74;45.45;100762.53;21062596;28;20040;-58
2023/07/02 23:45:22;;;;;;;21.63;17.48;;;;;;;26.75;45.17;100757.75;21074038;28;20028;-58
2023/07/02 23:55:24;;;;;;;21.75;16.15;;;;;;;26.81;44.91;100774.13;21055297;28;20428;-58
